Terminal Aerodrome Forecast
Issued by NWS Louisville, KY

Home | Current Version | Previous Version | Text Only | Print | Product List | Glossary On
Versions: 1 2 3 4 5 6 7 8 9 10 11 12 13 14 15 16 17 18 19
000
FTUS43 KLMK 182300
TAFLEX
TAF
KLEX 182326Z 1900/1924 27006KT P6SM SCT030 BKN090
     FM190400 VRB03KT 5SM BR SCT020
     FM191000 VRB03KT 2SM BR SCT005
     FM191500 25008KT P6SM SCT035=

USA.gov is the U.S. government's official web portal to all federal, state and local government web resources and services.